.
WxDataArchive / Data Records for 2012-11-28
2012-11-27 November 2012 2012-11-29

Data Records for Wednesday, 28 November 2012

Time	Temp	Chill	HIndex	Humid	Dewpt	 Wind 	HiWind	WindDir	Rain 	Barom 
-----	----	-----	------	-----	-----	------	------	-------	-----	----- 
00:00	24.8	24.8	24.8	79	19.2	0	0	---	0.00	30.310 
00:05	24.8	24.8	24.8	78	18.9	0	0	---	0.00	30.310 
00:10	24.8	24.8	24.8	78	18.9	0	0	---	0.00	30.310 
00:15	25.0	25.0	25.0	78	19.1	0	0	---	0.00	30.301 
00:20	25.0	25.0	25.0	78	19.1	0	0	---	0.00	30.301 
00:25	25.0	25.0	25.0	78	19.1	0	0	---	0.00	30.301 
00:30	25.0	25.0	25.0	78	19.1	0	0	---	0.00	30.296 
00:35	25.0	25.0	25.0	77	18.8	0	0	---	0.00	30.296 
00:40	24.8	24.8	24.8	77	18.6	0	0	---	0.00	30.296 
00:45	24.7	24.7	24.7	77	18.5	0	0	---	0.00	30.295 
00:50	24.7	24.7	24.7	77	18.5	0	0	---	0.00	30.295 
00:55	24.5	24.5	24.5	77	18.3	0	0	---	0.00	30.295 
01:00	24.5	24.5	24.5	77	18.3	0	0	---	0.00	30.293 
01:05	24.5	24.5	24.5	78	18.6	0	0	---	0.00	30.293 
01:10	24.5	24.5	24.5	77	18.3	0	1	292	0.00	30.293 
01:15	24.7	24.7	24.7	77	18.5	0	1	292	0.00	30.293 
01:20	24.8	24.8	24.8	77	18.6	0	1	292	0.00	30.293 
01:25	25.1	25.1	25.1	76	18.6	0	2	292	0.00	30.293 
01:30	25.4	25.4	25.4	75	18.6	0	1	292	0.00	30.293 
01:35	25.6	25.6	25.6	74	18.5	0	1	292	0.00	30.293 
01:40	25.6	25.6	25.6	74	18.5	0	1	292	0.00	30.293 
01:45	25.4	25.4	25.4	74	18.3	0	0	---	0.00	30.283 
01:50	25.3	25.3	25.3	73	17.9	0	0	---	0.00	30.283 
01:55	25.1	25.1	25.1	73	17.7	0	0	---	0.00	30.283 
02:00	25.0	25.0	25.0	74	17.9	0	0	---	0.00	30.283 
02:05	24.8	24.8	24.8	74	17.7	0	0	---	0.00	30.283 
02:10	24.8	24.8	24.8	75	18.0	0	1	292	0.00	30.283 
02:15	24.7	24.7	24.7	76	18.2	0	1	292	0.00	30.285 
02:20	24.7	24.7	24.7	76	18.2	0	1	292	0.00	30.285 
02:25	24.7	24.7	24.7	76	18.2	0	0	---	0.00	30.285 
02:30	24.7	24.7	24.7	77	18.5	0	0	---	0.00	30.285 
02:35	24.7	24.7	24.7	77	18.5	0	0	---	0.00	30.285 
02:40	24.7	24.7	24.7	77	18.5	0	1	292	0.00	30.285 
02:45	24.8	24.8	24.8	77	18.6	0	0	---	0.00	30.292 
02:50	24.7	24.7	24.7	77	18.5	0	0	---	0.00	30.292 
02:55	24.5	24.5	24.5	78	18.6	0	0	---	0.00	30.292 
03:00	24.4	24.4	24.4	78	18.5	0	0	---	0.00	30.289 
03:05	24.4	24.4	24.4	78	18.5	0	0	---	0.00	30.289 
03:10	24.2	24.2	24.2	78	18.3	0	0	---	0.00	30.289 
03:15	23.9	23.9	23.9	78	18.1	0	0	---	0.00	30.293 
03:20	23.9	23.9	23.9	79	18.4	0	1	292	0.00	30.293 
03:25	23.9	23.9	23.9	80	18.6	0	1	292	0.00	30.293 
03:30	24.4	24.4	24.4	81	19.4	0	3	292	0.00	30.293 
03:35	24.8	24.8	24.8	81	19.8	0	2	292	0.00	30.293 
03:40	25.3	25.3	25.3	81	20.3	0	2	292	0.00	30.293 
03:45	25.6	25.6	25.6	80	20.3	1	2	292	0.00	30.291 
03:50	25.8	25.8	25.8	79	20.2	0	2	292	0.00	30.291 
03:55	26.1	26.1	26.1	78	20.2	1	3	292	0.00	30.291 
04:00	26.3	26.3	26.3	77	20.1	1	2	292	0.00	30.288 
04:05	26.4	26.4	26.4	77	20.2	0	3	292	0.00	30.288 
04:10	26.4	26.4	26.4	76	19.9	1	3	292	0.00	30.288 
04:15	26.4	26.4	26.4	76	19.9	1	2	270	0.00	30.282 
04:20	26.4	26.4	26.4	75	19.6	0	3	270	0.00	30.282 
04:25	26.4	26.4	26.4	75	19.6	0	2	270	0.00	30.282 
04:30	26.6	26.6	26.6	75	19.8	0	2	270	0.00	30.279 
04:35	26.6	26.6	26.6	75	19.8	0	2	270	0.00	30.279 
04:40	26.7	26.7	26.7	74	19.5	1	3	270	0.00	30.279 
04:45	26.9	26.9	26.9	74	19.7	1	3	270	0.00	30.279 
04:50	27.0	27.0	27.0	73	19.5	1	3	270	0.00	30.279 
04:55	27.2	27.2	27.2	73	19.7	1	4	270	0.00	30.279 
05:00	27.3	27.3	27.3	72	19.5	1	4	248	0.00	30.278 
05:05	27.5	27.5	27.5	72	19.7	1	3	248	0.00	30.278 
05:10	27.5	27.5	27.5	72	19.7	1	4	248	0.00	30.278 
05:15	27.6	27.6	27.6	71	19.4	1	2	248	0.00	30.281 
05:20	27.6	27.6	27.6	70	19.1	1	3	248	0.00	30.281 
05:25	27.8	27.8	27.8	70	19.3	1	3	248	0.00	30.281 
05:30	27.8	27.8	27.8	69	19.0	1	6	248	0.00	30.287 
05:35	27.9	27.9	27.9	69	19.1	1	3	248	0.00	30.287 
05:40	28.1	28.1	28.1	69	19.3	1	3	248	0.00	30.287 
05:45	28.1	28.1	28.1	68	18.9	1	4	248	0.00	30.293 
05:50	28.2	28.2	28.2	68	19.0	0	4	248	0.00	30.293 
05:55	28.2	28.2	28.2	67	18.7	1	4	248	0.00	30.293 
06:00	28.2	28.2	28.2	67	18.7	1	3	248	0.00	30.295 
06:05	28.1	28.1	28.1	67	18.6	0	1	248	0.00	30.295 
06:10	28.1	28.1	28.1	66	18.2	1	3	248	0.00	30.295 
06:15	28.1	28.1	28.1	66	18.2	1	4	248	0.00	30.298 
06:20	28.1	28.1	28.1	66	18.2	1	3	248	0.00	30.298 
06:25	28.1	28.1	28.1	66	18.2	1	3	248	0.00	30.298 
06:30	27.9	27.9	27.9	66	18.0	1	4	248	0.00	30.300 
06:35	27.9	27.9	27.9	66	18.0	1	4	248	0.00	30.300 
06:40	27.8	27.8	27.8	66	17.9	1	3	248	0.00	30.300 
06:45	27.8	27.8	27.8	66	17.9	0	3	248	0.00	30.312 
06:50	27.6	27.6	27.6	66	17.8	0	3	248	0.00	30.312 
06:55	27.5	27.5	27.5	67	18.0	0	2	248	0.00	30.312 
07:00	27.3	27.3	27.3	67	17.8	0	2	248	0.00	30.313 
07:05	27.3	27.3	27.3	68	18.2	0	1	248	0.00	30.313 
07:10	27.2	27.2	27.2	68	18.1	0	2	248	0.00	30.313 
07:15	27.2	27.2	27.2	68	18.1	1	4	248	0.00	30.319 
07:20	27.2	27.2	27.2	68	18.1	1	4	248	0.00	30.319 
07:25	27.2	27.2	27.2	69	18.4	1	4	248	0.00	30.319 
07:30	27.2	27.2	27.2	69	18.4	1	4	248	0.00	30.329 
07:35	27.0	27.0	27.0	69	18.2	0	3	248	0.00	30.329 
07:40	27.0	27.0	27.0	69	18.2	0	2	248	0.00	30.329 
07:45	27.0	27.0	27.0	69	18.2	0	3	248	0.00	30.336 
07:50	26.9	26.9	26.9	69	18.1	0	2	248	0.00	30.336 
07:55	26.9	26.9	26.9	69	18.1	0	1	248	0.00	30.336 
08:00	26.7	26.7	26.7	69	17.9	0	2	248	0.00	30.340 
08:05	26.7	26.7	26.7	70	18.3	0	1	248	0.00	30.340 
08:10	26.7	26.7	26.7	70	18.3	0	3	248	0.00	30.340 
08:15	26.7	26.7	26.7	70	18.3	0	2	248	0.00	30.351 
08:20	26.9	26.9	26.9	70	18.4	0	2	248	0.00	30.351 
08:25	27.0	27.0	27.0	70	18.5	0	2	248	0.00	30.351 
08:30	27.0	27.0	27.0	70	18.5	0	2	248	0.00	30.353 
08:35	27.2	27.2	27.2	70	18.7	1	4	248	0.00	30.353 
08:40	27.3	27.3	27.3	69	18.5	1	3	248	0.00	30.353 
08:45	27.6	27.6	27.6	69	18.8	1	3	248	0.00	30.353 
08:50	27.8	27.8	27.8	69	19.0	0	2	248	0.00	30.353 
08:55	27.9	27.9	27.9	69	19.1	0	2	248	0.00	30.353 
09:00	28.1	28.1	28.1	68	18.9	0	2	248	0.00	30.358 
09:05	28.4	28.4	28.4	68	19.2	0	2	248	0.00	30.358 
09:10	28.5	28.5	28.5	67	19.0	0	3	248	0.00	30.358 
09:15	28.8	28.8	28.8	67	19.2	0	3	248	0.00	30.366 
09:20	29.1	29.1	29.1	66	19.2	0	2	248	0.00	30.366 
09:25	29.5	29.5	29.5	65	19.2	1	4	248	0.00	30.366 
09:30	29.7	29.7	29.7	65	19.4	1	3	248	0.00	30.367 
09:35	29.8	29.8	29.8	65	19.5	1	4	248	0.00	30.367 
09:40	30.1	30.1	30.1	64	19.4	0	2	248	0.00	30.367 
09:45	30.4	30.4	30.4	63	19.3	1	3	248	0.00	30.372 
09:50	30.7	30.7	30.7	63	19.6	1	2	248	0.00	30.372 
09:55	30.9	30.9	30.9	63	19.8	1	3	248	0.00	30.372 
10:00	31.2	31.2	31.2	63	20.1	1	4	248	0.00	30.370 
10:05	31.5	31.5	31.5	63	20.4	1	2	248	0.00	30.370 
10:10	31.6	31.6	31.6	62	20.1	1	4	248	0.00	30.370 
10:15	31.9	31.9	31.9	62	20.4	1	5	248	0.00	30.372 
10:20	32.2	32.2	32.2	63	21.0	1	3	248	0.00	30.372 
10:25	32.5	32.5	32.5	62	20.9	2	4	248	0.00	30.372 
10:30	32.7	32.7	32.7	62	21.1	1	4	248	0.00	30.376 
10:35	32.8	32.8	32.8	62	21.2	1	4	248	0.00	30.376 
10:40	32.9	32.9	32.9	62	21.3	1	4	248	0.00	30.376 
10:45	33.2	33.2	33.2	61	21.2	1	5	248	0.00	30.378 
10:50	33.5	33.5	33.5	62	21.9	1	3	248	0.00	30.378 
10:55	33.7	33.7	33.7	61	21.7	1	4	248	0.00	30.378 
11:00	34.1	34.1	34.1	61	22.1	0	4	248	0.00	30.379 
11:05	34.7	34.7	34.7	61	22.6	1	3	248	0.00	30.379 
11:10	35.2	35.2	35.2	60	22.7	1	3	248	0.00	30.379 
11:15	35.6	35.6	35.6	60	23.1	1	3	248	0.00	30.380 
11:20	35.9	35.9	35.9	59	23.0	1	4	248	0.00	30.380 
11:25	36.2	36.2	36.2	60	23.7	1	4	248	0.00	30.380 
11:30	36.5	36.5	36.5	60	24.0	0	2	292	0.00	30.379 
11:35	36.8	36.8	36.8	59	23.8	1	3	292	0.00	30.379 
11:40	37.0	37.0	37.0	59	24.0	1	3	292	0.00	30.379 
11:45	37.3	37.3	37.3	59	24.3	2	5	248	0.00	30.383 
11:50	37.5	37.5	37.5	59	24.5	1	4	292	0.00	30.383 
11:55	37.6	37.6	37.6	58	24.2	2	4	248	0.00	30.383 
12:00	37.5	37.5	37.5	59	24.5	2	4	248	0.00	30.384 
12:05	37.6	37.6	37.6	59	24.6	1	3	248	0.00	30.384 
12:10	37.6	37.6	37.6	58	24.2	2	4	292	0.00	30.384 
12:15	37.8	37.8	37.8	58	24.4	1	3	270	0.00	30.380 
12:20	38.0	38.0	38.0	59	25.0	2	5	270	0.00	30.380 
12:25	38.2	38.2	38.2	58	24.7	1	3	248	0.00	30.380 
12:30	38.3	38.3	38.3	58	24.8	1	3	248	0.00	30.372 
12:35	38.8	38.8	38.8	58	25.3	1	4	270	0.00	30.372 
12:40	38.9	38.9	38.9	57	25.0	2	4	270	0.00	30.372 
12:45	38.9	38.9	38.9	57	25.0	1	6	248	0.00	30.371 
12:50	39.1	39.1	39.1	57	25.2	1	3	315	0.00	30.371 
12:55	39.2	39.2	39.2	57	25.3	1	6	248	0.00	30.371 
13:00	39.1	39.1	39.1	56	24.7	1	6	248	0.00	30.368 
13:05	39.2	39.2	39.2	56	24.8	1	5	248	0.00	30.368 
13:10	39.3	39.3	39.3	56	24.9	1	3	248	0.00	30.368 
13:15	39.5	39.5	39.5	56	25.1	1	3	248	0.00	30.358 
13:20	39.6	39.6	39.6	57	25.6	1	4	270	0.00	30.358 
13:25	39.8	39.8	39.8	55	25.0	2	4	270	0.00	30.358 
13:30	40.1	40.1	40.1	56	25.7	1	3	270	0.00	30.354 
13:35	40.2	40.2	40.2	55	25.3	1	3	248	0.00	30.354 
13:40	40.3	40.3	40.3	55	25.4	1	3	248	0.00	30.354 
13:45	40.6	40.6	40.6	55	25.7	1	2	248	0.00	30.343 
13:50	40.8	40.8	40.8	53	25.0	1	5	248	0.00	30.343 
13:55	40.8	40.8	40.8	53	25.0	0	2	248	0.00	30.343 
14:00	40.9	40.9	40.9	53	25.1	0	2	248	0.00	30.338 
14:05	40.9	40.9	40.9	53	25.1	1	6	248	0.00	30.338 
14:10	41.2	41.2	41.2	52	24.9	1	3	248	0.00	30.338 
14:15	41.1	41.1	41.1	52	24.8	1	3	248	0.00	30.339 
14:20	41.1	41.1	41.1	52	24.8	1	4	248	0.00	30.339 
14:25	41.1	41.1	41.1	52	24.8	2	4	248	0.00	30.339 
14:30	41.1	41.1	41.1	51	24.4	1	3	248	0.00	30.340 
14:35	41.3	41.3	41.3	51	24.6	1	3	248	0.00	30.340 
14:40	41.3	41.3	41.3	50	24.1	1	4	248	0.00	30.340 
14:45	41.3	41.3	41.3	51	24.6	1	3	315	0.00	30.342 
14:50	41.6	41.6	41.6	52	25.3	1	3	270	0.00	30.342 
14:55	41.6	41.6	41.6	50	24.4	2	5	248	0.00	30.342 
15:00	41.6	41.6	41.6	50	24.4	1	3	248	0.00	30.347 
15:05	41.6	41.6	41.6	50	24.4	1	3	248	0.00	30.347 
15:10	41.3	41.3	41.3	50	24.1	1	3	248	0.00	30.347 
15:15	41.2	41.2	41.2	50	24.0	2	4	248	0.00	30.349 
15:20	41.3	41.3	41.3	49	23.6	2	4	248	0.00	30.349 
15:25	41.5	41.5	41.5	50	24.3	1	5	248	0.00	30.349 
15:30	41.2	41.2	41.2	50	24.0	2	9	248	0.00	30.350 
15:35	41.1	41.1	41.1	51	24.4	1	4	248	0.00	30.350 
15:40	41.1	41.1	41.1	50	23.9	1	3	248	0.00	30.350 
15:45	41.2	41.2	41.2	50	24.0	1	4	248	0.00	30.344 
15:50	41.1	41.1	41.1	50	23.9	2	4	270	0.00	30.344 
15:55	41.1	41.1	41.1	50	23.9	1	5	248	0.00	30.344 
16:00	41.2	41.2	41.2	50	24.0	1	4	270	0.00	30.351 
16:05	41.2	41.2	41.2	50	24.0	1	4	248	0.00	30.351 
16:10	41.1	41.1	41.1	49	23.4	2	4	248	0.00	30.351 
16:15	40.9	40.9	40.9	49	23.2	1	3	248	0.00	30.346 
16:20	40.8	40.8	40.8	49	23.1	1	5	248	0.00	30.346 
16:25	40.6	40.6	40.6	49	23.0	1	2	270	0.00	30.346 
16:30	40.3	40.3	40.3	50	23.2	1	3	270	0.00	30.350 
16:35	40.2	40.2	40.2	50	23.1	1	3	248	0.00	30.350 
16:40	40.1	40.1	40.1	51	23.4	1	4	248	0.00	30.350 
16:45	39.9	39.9	39.9	51	23.3	1	4	248	0.00	30.347 
16:50	39.6	39.6	39.6	51	23.0	1	4	248	0.00	30.347 
16:55	39.5	39.5	39.5	51	22.9	1	3	248	0.00	30.347 
17:00	39.2	39.2	39.2	51	22.6	1	3	248	0.00	30.342 
17:05	38.9	38.9	38.9	51	22.3	0	2	248	0.00	30.342 
17:10	38.6	38.6	38.6	52	22.5	1	5	248	0.00	30.342 
17:15	38.5	38.5	38.5	52	22.4	0	1	248	0.00	30.345 
17:20	38.2	38.2	38.2	52	22.1	0	1	248	0.00	30.345 
17:25	37.8	37.8	37.8	53	22.2	0	1	248	0.00	30.345 
17:30	37.6	37.6	37.6	53	22.0	0	1	248	0.00	30.349 
17:35	37.3	37.3	37.3	54	22.2	0	0	---	0.00	30.349 
17:40	37.0	37.0	37.0	54	21.9	0	1	248	0.00	30.349 
17:45	36.6	36.6	36.6	55	22.0	0	1	248	0.00	30.353 
17:50	36.3	36.3	36.3	56	22.1	0	1	248	0.00	30.353 
17:55	36.0	36.0	36.0	57	22.3	0	1	248	0.00	30.353 
18:00	35.8	35.8	35.8	58	22.5	0	1	248	0.00	30.355 
18:05	35.6	35.6	35.6	58	22.3	0	1	248	0.00	30.355 
18:10	35.5	35.5	35.5	58	22.2	0	1	248	0.00	30.355 
18:15	35.2	35.2	35.2	58	21.9	0	0	---	0.00	30.358 
18:20	35.0	35.0	35.0	58	21.7	0	1	248	0.00	30.358 
18:25	35.0	35.0	35.0	58	21.7	0	1	248	0.00	30.358 
18:30	35.0	35.0	35.0	58	21.7	0	1	248	0.00	30.359 
18:35	35.0	35.0	35.0	58	21.7	0	1	248	0.00	30.359 
18:40	34.9	34.9	34.9	58	21.6	0	0	---	0.00	30.359 
18:45	34.7	34.7	34.7	59	21.9	0	0	---	0.00	30.365 
18:50	34.4	34.4	34.4	59	21.6	0	0	---	0.00	30.365 
18:55	34.1	34.1	34.1	60	21.7	0	0	---	0.00	30.365 
19:00	33.8	33.8	33.8	60	21.4	0	0	---	0.00	30.372 
19:05	33.4	33.4	33.4	60	21.0	0	0	---	0.00	30.372 
19:10	33.1	33.1	33.1	61	21.1	0	0	---	0.00	30.372 
19:15	32.5	32.5	32.5	61	20.6	0	0	---	0.00	30.371 
19:20	32.1	32.1	32.1	62	20.6	0	0	---	0.00	30.371 
19:25	31.5	31.5	31.5	63	20.4	0	0	---	0.00	30.371 
19:30	31.0	31.0	31.0	64	20.3	0	0	---	0.00	30.373 
19:35	30.7	30.7	30.7	65	20.3	0	0	---	0.00	30.373 
19:40	30.7	30.7	30.7	66	20.7	0	0	---	0.00	30.373 
19:45	30.6	30.6	30.6	67	21.0	0	0	---	0.00	30.375 
19:50	30.3	30.3	30.3	67	20.7	0	0	---	0.00	30.375 
19:55	30.1	30.1	30.1	68	20.8	0	0	---	0.00	30.375 
20:00	29.7	29.7	29.7	68	20.5	0	0	---	0.00	30.381 
20:05	29.4	29.4	29.4	69	20.5	0	0	---	0.00	30.381 
20:10	29.1	29.1	29.1	70	20.6	0	0	---	0.00	30.381 
20:15	29.0	29.0	29.0	70	20.5	0	0	---	0.00	30.376 
20:20	28.7	28.7	28.7	70	20.2	0	0	---	0.00	30.376 
20:25	28.4	28.4	28.4	71	20.2	0	0	---	0.00	30.376 
20:30	28.2	28.2	28.2	72	20.4	0	0	---	0.00	30.374 
20:35	27.9	27.9	27.9	72	20.1	0	0	---	0.00	30.374 
20:40	27.8	27.8	27.8	73	20.3	0	0	---	0.00	30.374 
20:45	27.6	27.6	27.6	73	20.1	0	0	---	0.00	30.377 
20:50	27.3	27.3	27.3	73	19.8	0	0	---	0.00	30.377 
20:55	27.0	27.0	27.0	73	19.5	0	0	---	0.00	30.377 
21:00	26.7	26.7	26.7	74	19.5	0	0	---	0.00	30.377 
21:05	26.7	26.7	26.7	75	19.9	0	0	---	0.00	30.377 
21:10	26.4	26.4	26.4	75	19.6	0	0	---	0.00	30.377 
21:15	26.3	26.3	26.3	75	19.5	0	0	---	0.00	30.371 
21:20	26.1	26.1	26.1	76	19.6	0	0	---	0.00	30.371 
21:25	26.1	26.1	26.1	77	19.9	0	0	---	0.00	30.371 
21:30	26.1	26.1	26.1	77	19.9	0	0	---	0.00	30.371 
21:35	26.1	26.1	26.1	77	19.9	0	0	---	0.00	30.371 
21:40	26.3	26.3	26.3	78	20.4	0	0	---	0.00	30.371 
21:45	26.4	26.4	26.4	78	20.5	0	0	---	0.00	30.367 
21:50	26.7	26.7	26.7	79	21.1	0	0	---	0.00	30.367 
21:55	27.0	27.0	27.0	79	21.4	0	0	---	0.00	30.367 
22:00	27.5	27.5	27.5	79	21.9	0	0	---	0.00	30.369 
22:05	27.8	27.8	27.8	79	22.2	0	1	248	0.00	30.369 
22:10	28.4	28.4	28.4	79	22.7	0	1	248	0.00	30.369 
22:15	28.8	28.8	28.8	78	22.8	0	1	248	0.00	30.364 
22:20	29.1	29.1	29.1	77	22.8	0	1	248	0.00	30.364 
22:25	29.4	29.4	29.4	76	22.8	0	1	248	0.00	30.364 
22:30	29.5	29.5	29.5	75	22.6	0	2	248	0.00	30.358 
22:35	29.7	29.7	29.7	75	22.8	0	1	248	0.00	30.358 
22:40	29.7	29.7	29.7	75	22.8	0	1	248	0.00	30.358 
22:45	29.5	29.5	29.5	75	22.6	0	0	---	0.00	30.355 
22:50	29.4	29.4	29.4	74	22.2	0	0	---	0.00	30.355 
22:55	29.3	29.3	29.3	75	22.4	0	1	248	0.00	30.355 
23:00	29.1	29.1	29.1	75	22.2	0	0	---	0.00	30.356 
23:05	29.1	29.1	29.1	75	22.2	0	1	248	0.00	30.356 
23:10	29.1	29.1	29.1	76	22.5	0	0	---	0.00	30.356 
23:15	29.1	29.1	29.1	76	22.5	0	0	---	0.00	30.355 
23:20	29.3	29.3	29.3	76	22.7	0	1	248	0.00	30.355 
23:25	29.4	29.4	29.4	76	22.8	0	1	248	0.00	30.355 
23:30	29.5	29.5	29.5	76	22.9	0	1	248	0.00	30.355 
23:35	29.7	29.7	29.7	76	23.1	0	1	248	0.00	30.355 
23:40	29.7	29.7	29.7	75	22.8	0	1	248	0.00	30.355 
23:45	29.5	29.5	29.5	75	22.6	0	0	---	0.00	30.355 
23:50	29.5	29.5	29.5	75	22.6	0	1	248	0.00	30.355 
23:55	29.4	29.4	29.4	75	22.5	0	0	---	0.00	30.355 

CoCoRaHS
IN-AL-39
A2 Web Hosting
Creative Commons License
GoDaddy
search engine by freefind advanced

loaded 2018-11-19 10:18:32 • last modified 2010-11-18 10:43:29
Privacy PolicyDisclaimer
• wx.awcolley.com is powered by PmWiki v.2002016 •
• all content (unless otherwise noted) © 2018 A W Colley